CW2597 Weather Reports


Display with metric or nautical units.
time (UTC)temp
F
wind
direction
speed
MPH
gust
MPH
rain 1hr
in
rain 24hr
in
rain mn
in
humidity
%
barometer
mb
20191015013505 57 140 0.0 0.0 0.00 0.00 0.00 91 1005.8
20191015013156 57 140 0.0 1.0 0.00 0.01 0.00 91 1004.5
20191015012656 57 140 0.0 2.0 0.00 0.01 0.00 91 1004.4
20191015012505 58 140 1.0 4.0 0.00 0.00 0.00 90 1005.7
20191015012156 58 133 1.0 3.0 0.00 0.01 0.00 90 1004.4
20191015011656 58 100 1.0 3.0 0.00 0.01 0.00 90 1004.4
20191015011504 58 108 1.0 4.0 0.00 0.00 0.00 90 1005.7
20191015011156 58 98 1.0 3.0 0.00 0.01 0.00 91 1004.5
20191015010656 58 104 2.0 3.0 0.00 0.01 0.00 91 1004.4
20191015010504 58 100 2.0 4.0 0.00 0.00 0.00 91 1005.8
20191015010156 58 100 1.0 3.0 0.00 0.01 0.00 91 1004.6
20191015005655 58 100 1.0 6.0 0.00 0.01 0.00 91 1004.7
20191015005155 58 99 0.0 2.0 0.00 0.01 0.00 91 1004.7
20191015004656 58 99 2.0 3.0 0.00 0.01 0.00 91 1004.7
20191015004504 58 99 2.0 4.0 0.00 0.00 0.00 91 1005.9
20191015004156 58 99 1.0 3.0 0.00 0.01 0.00 90 1004.9
20191015003656 58 99 2.0 3.0 0.00 0.01 0.00 90 1005.0
20191015003504 58 99 1.0 3.0 0.00 0.00 0.00 90 1006.1
20191015003155 58 99 1.0 3.0 0.00 0.01 0.00 91 1004.9
20191015002656 58 99 2.0 3.0 0.00 0.01 0.00 90 1005.0
20191015002156 59 99 2.0 3.0 0.00 0.01 0.00 91 1005.1
20191015001656 59 99 2.0 3.0 0.00 0.01 0.00 91 1005.1
20191015001504 59 99 2.0 4.0 0.00 0.00 0.00 91 1006.3
20191015001156 59 98 0.0 2.0 0.00 0.01 0.00 91 1005.2
20191015000655 59 98 2.0 5.0 0.00 0.01 0.00 91 1005.1
20191015000504 59 98 1.0 3.0 0.00 0.00 0.00 91 1006.3
20191015000155 59 105 1.0 3.0 0.00 0.01 0.00 91 1005.0
20191014235655 59 105 2.0 6.0 0.00 0.01 0.00 91 1005.0
20191014235156 59 98 2.0 5.0 0.00 0.01 0.00 91 1005.0
20191014234656 59 92 2.0 3.0 0.00 0.01 0.00 91 1005.0
20191014234156 59 106 2.0 3.0 0.00 0.01 0.00 91 1005.1
20191014233656 60 91 3.0 7.0 0.00 0.01 0.00 91 1005.1
20191014233503 59 99 1.0 4.0 0.00 0.00 0.00 91 1006.3
20191014233155 59 106 1.0 7.0 0.00 0.01 0.00 91 1005.2
20191014232656 59 96 3.0 7.0 0.00 0.01 0.00 91 1005.1
20191014232156 59 106 1.0 3.0 0.00 0.01 0.00 91 1005.2
20191014231656 60 93 3.0 6.0 0.00 0.01 0.00 91 1005.2
20191014231503 60 99 3.0 8.0 0.00 0.00 0.00 91 1006.4
20191014231155 59 92 3.0 8.0 0.00 0.01 0.00 91 1005.4
20191014230656 59 104 1.0 3.0 0.00 0.01 0.00 91 1005.5
20191014230503 59 104 2.0 5.0 0.00 0.00 0.00 91 1006.7
20191014230155 59 104 2.0 5.0 0.00 0.01 0.00 91 1005.5
20191014225656 59 80 0.0 3.0 0.00 0.01 0.00 91 1005.7
20191014225155 59 108 1.0 3.0 0.00 0.01 0.00 91 1005.8
20191014224656 59 99 2.0 3.0 0.00 0.01 0.00 91 1005.8
20191014224502 59 110 2.0 4.0 0.00 0.00 0.00 91 1006.9
20191014224156 59 121 0.0 0.0 0.00 0.01 0.00 91 1005.8
20191014223656 59 121 0.0 0.0 0.00 0.01 0.00 91 1006.0
20191014223156 60 121 0.0 3.0 0.00 0.01 0.00 91 1006.0
20191014222656 60 113 2.0 3.0 0.00 0.01 0.00 91 1005.9
20191014222502 60 113 2.0 6.0 0.00 0.00 0.00 91 1007.0
20191014222155 60 101 3.0 6.0 0.00 0.01 0.00 91 1005.8
20191014221656 60 95 2.0 7.0 0.00 0.01 0.00 91 1005.9
20191014221502 60 94 3.0 7.0 0.00 0.00 0.00 91 1007.1
20191014221156 60 104 2.0 7.0 0.00 0.01 0.00 91 1005.9
20191014220656 60 101 1.0 3.0 0.00 0.01 0.00 90 1006.0
20191014220156 60 93 2.0 8.0 0.00 0.01 0.00 90 1006.0
20191014215656 60 99 2.0 8.0 0.00 0.01 0.01 90 1006.0
20191014215156 60 104 3.0 6.0 0.00 0.01 0.01 90 1006.0
20191014214656 60 94 2.0 6.0 0.00 0.01 0.01 90 1006.1
20191014214502 60 80 2.0 6.0 0.00 0.01 0.01 90 1007.3
20191014214156 60 89 2.0 7.0 0.00 0.01 0.01 90 1006.1
20191014213656 60 98 2.0 6.0 0.00 0.01 0.01 91 1006.2
20191014213502 60 111 3.0 7.0 0.00 0.01 0.01 90 1007.4
20191014213155 61 101 3.0 7.0 0.00 0.01 0.01 90 1006.2
20191014212656 61 85 5.0 7.0 0.00 0.01 0.01 90 1006.2
20191014212501 61 84 5.0 8.0 0.00 0.01 0.01 90 1007.5
20191014212156 61 94 5.0 8.0 0.00 0.01 0.01 90 1006.2
20191014211655 60 114 2.0 5.0 0.00 0.01 0.01 90 1006.2
20191014211501 60 117 2.0 6.0 0.00 0.01 0.01 90 1007.4
20191014211156 61 92 2.0 6.0 0.00 0.01 0.01 90 1006.3
20191014210656 61 95 2.0 9.0 0.00 0.01 0.01 90 1006.3
20191014210156 61 100 3.0 7.0 0.00 0.01 0.01 90 1006.3
20191014205656 61 100 2.0 9.0 0.00 0.01 0.01 90 1006.4
20191014205156 61 108 2.0 6.0 0.00 0.01 0.01 89 1006.5
20191014204655 61 94 3.0 8.0 0.00 0.01 0.01 89 1006.5
20191014204155 61 132 2.0 7.0 0.00 0.01 0.01 89 1006.6
20191014203656 61 112 2.0 6.0 0.00 0.01 0.01 89 1006.6
20191014203155 61 99 5.0 9.0 0.00 0.06 0.01 89 1006.7
20191014202656 61 101 2.0 6.0 0.00 0.13 0.01 89 1006.9
20191014202501 61 92 2.0 7.0 0.00 0.01 0.01 89 1008.1
20191014202155 61 100 2.0 7.0 0.00 0.13 0.01 89 1007.0
20191014201656 61 84 3.0 9.0 0.00 0.13 0.01 89 1007.0
20191014201501 61 92 4.0 9.0 0.00 0.01 0.01 89 1008.2
20191014201156 61 97 4.0 9.0 0.00 0.13 0.01 89 1006.9
20191014200656 61 93 2.0 9.0 0.00 0.13 0.01 89 1007.0
20191014200155 61 93 3.0 7.0 0.00 0.13 0.01 89 1007.2
20191014195656 61 84 5.0 8.0 0.00 0.13 0.01 88 1007.2
20191014195506 61 147 3.0 8.0 0.00 0.01 0.01 88 1008.5
20191014195156 61 91 3.0 9.0 0.00 0.13 0.01 88 1007.2
20191014194656 61 93 5.0 8.0 0.00 0.13 0.01 88 1007.2
20191014194505 61 97 5.0 8.0 0.00 0.01 0.01 88 1008.4
20191014194155 61 85 4.0 8.0 0.00 0.13 0.01 88 1007.2
20191014193655 61 90 5.0 8.0 0.00 0.13 0.01 88 1007.3
20191014193505 61 92 4.0 8.0 0.00 0.01 0.01 88 1008.6
20191014193156 61 95 3.0 7.0 0.00 0.13 0.01 88 1007.3
20191014192656 61 92 2.0 7.0 0.00 0.13 0.01 88 1007.4
20191014192155 61 89 3.0 9.0 0.00 0.13 0.01 88 1007.4
20191014191656 61 102 6.0 10.0 0.00 0.13 0.01 88 1007.4
20191014191155 61 95 4.0 8.0 0.00 0.13 0.01 88 1007.3
20191014190655 61 100 3.0 8.0 0.00 0.13 0.01 88 1007.4
20191014190155 61 97 5.0 7.0 0.00 0.13 0.01 88 1007.4
20191014185656 61 93 2.0 6.0 0.00 0.13 0.01 88 1007.4
20191014185155 61 89 2.0 3.0 0.00 0.13 0.01 88 1007.4
20191014184656 61 89 1.0 6.0 0.00 0.13 0.01 88 1007.5
20191014184504 61 88 2.0 6.0 0.00 0.01 0.01 88 1008.7
20191014184156 61 88 2.0 6.0 0.00 0.13 0.01 88 1007.6
20191014183656 61 88 2.0 3.0 0.00 0.13 0.01 87 1007.5
20191014183156 61 99 3.0 8.0 0.00 0.13 0.01 88 1007.6
20191014182656 61 90 4.0 8.0 0.00 0.13 0.01 88 1007.5
20191014182504 61 88 3.0 8.0 0.00 0.01 0.01 88 1008.7
20191014182156 62 72 3.0 7.0 0.00 0.13 0.01 88 1007.5
20191014181656 62 101 7.0 9.0 0.00 0.13 0.01 88 1007.4
20191014181155 61 85 6.0 9.0 0.00 0.13 0.01 88 1007.5
20191014180655 61 87 5.0 8.0 0.00 0.13 0.01 88 1007.7
20191014180505 61 99 5.0 9.0 0.00 0.01 0.01 88 1008.8
20191014180156 61 90 4.0 7.0 0.00 0.13 0.01 88 1007.7
20191014175655 61 69 3.0 8.0 0.00 0.13 0.01 88 1007.7
20191014175155 61 73 4.0 7.0 0.00 0.13 0.01 87 1007.7
20191014174655 61 57 2.0 8.0 0.00 0.13 0.01 87 1007.7
20191014174155 61 63 2.0 3.0 0.00 0.13 0.01 87 1007.7
20191014173655 61 83 2.0 6.0 0.00 0.13 0.01 87 1007.8
20191014173504 61 87 2.0 6.0 0.00 0.01 0.01 87 1009.1
20191014173156 61 87 2.0 6.0 0.00 0.13 0.01 87 1007.9
20191014172655 61 88 2.0 7.0 0.00 0.13 0.01 87 1008.0
20191014172503 61 70 2.0 7.0 0.00 0.01 0.01 86 1009.2
20191014172155 62 71 1.0 5.0 0.00 0.13 0.01 86 1008.0
20191014171655 62 71 1.0 3.0 0.00 0.13 0.01 86 1008.1
20191014171503 62 63 2.0 5.0 0.00 0.01 0.01 86 1009.3
20191014171156 62 73 3.0 5.0 0.00 0.13 0.01 86 1008.1
20191014170656 62 72 1.0 5.0 0.00 0.13 0.01 86 1008.1
20191014170156 62 44 2.0 6.0 0.00 0.13 0.01 85 1008.2
20191014165656 62 38 1.0 3.0 0.00 0.13 0.01 85 1008.3
20191014165503 62 38 1.0 4.0 0.00 0.01 0.01 85 1009.5
20191014165157 62 31 0.0 3.0 0.00 0.13 0.01 85 1008.3
20191014164655 63 25 1.0 3.0 0.00 0.13 0.01 85 1008.4
20191014164156 63 18 1.0 3.0 0.00 0.13 0.01 85 1008.5
20191014163656 63 4 3.0 6.0 0.00 0.13 0.01 85 1008.5
20191014163156 63 79 2.0 7.0 0.00 0.13 0.01 84 1008.4
20191014162657 63 65 3.0 8.0 0.00 0.13 0.01 84 1008.3
20191014162503 63 54 4.0 8.0 0.00 0.01 0.01 84 1009.6
20191014162155 63 75 3.0 9.0 0.00 0.13 0.01 84 1008.4
20191014161657 63 72 3.0 7.0 0.00 0.13 0.01 83 1008.4
20191014161504 63 59 3.0 8.0 0.00 0.01 0.01 83 1009.6
20191014161156 63 76 5.0 7.0 0.00 0.13 0.01 83 1008.5
20191014160655 64 69 3.0 7.0 0.00 0.13 0.01 83 1008.6
20191014160156 64 76 5.0 10.0 0.00 0.13 0.01 83 1008.6
20191014155655 64 75 7.0 10.0 0.00 0.13 0.01 83 1008.6
20191014155155 64 80 6.0 9.0 0.00 0.13 0.01 82 1008.6
20191014154656 64 73 6.0 12.0 0.00 0.13 0.01 82 1008.6
20191014154502 64 119 7.0 11.0 0.00 0.01 0.01 82 1009.8
20191014154156 64 81 7.0 12.0 0.00 0.13 0.01 82 1008.6
20191014153656 64 73 8.0 12.0 0.00 0.13 0.01 81 1008.6
20191014153157 64 77 6.0 12.0 0.00 0.13 0.01 81 1008.7
20191014152656 64 77 7.0 12.0 0.00 0.13 0.01 80 1008.8
20191014152502 64 89 6.0 9.0 0.00 0.01 0.01 80 1010.0
20191014152155 64 86 5.0 9.0 0.00 0.13 0.01 80 1008.8
20191014151655 64 77 6.0 9.0 0.00 0.13 0.01 80 1009.0
20191014151156 64 86 7.0 10.0 0.00 0.13 0.01 80 1009.1
20191014150655 64 91 7.0 12.0 0.00 0.13 0.01 80 1009.2
20191014150155 65 93 6.0 10.0 0.00 0.13 0.01 80 1009.2
20191014145655 64 80 7.0 12.0 0.00 0.13 0.01 79 1009.3
20191014145155 65 74 7.0 10.0 0.00 0.13 0.01 79 1009.4
20191014144656 65 81 8.0 12.0 0.00 0.13 0.01 79 1009.5
20191014144501 65 86 9.0 13.0 0.00 0.01 0.01 79 1010.8
20191014144155 65 77 7.0 12.0 0.00 0.13 0.01 79 1009.6
20191014143655 65 65 7.0 12.0 0.00 0.13 0.01 79 1009.6
20191014143501 65 70 7.0 11.0 0.00 0.01 0.01 79 1010.8
20191014143155 65 83 6.0 12.0 0.00 0.13 0.01 79 1009.6
20191014142656 65 74 5.0 10.0 0.00 0.13 0.01 79 1009.6
20191014142501 65 67 6.0 10.0 0.00 0.01 0.01 78 1011.0
20191014142156 65 97 5.0 12.0 0.00 0.13 0.01 78 1009.8
20191014141655 65 72 6.0 14.0 0.00 0.13 0.01 78 1009.8
20191014141503 65 61 5.0 14.0 0.00 0.01 0.01 78 1011.0
20191014141155 65 80 8.0 14.0 0.00 0.13 0.01 78 1009.9
20191014140655 65 67 8.0 14.0 0.00 0.13 0.01 78 1009.8
20191014140501 65 77 9.0 14.0 0.00 0.01 0.01 78 1011.1
20191014140156 65 73 9.0 14.0 0.00 0.13 0.01 78 1009.9
20191014135656 65 107 5.0 10.0 0.00 0.13 0.01 79 1010.1
20191014135157 65 78 7.0 12.0 0.00 0.13 0.01 79 1010.2
20191014134656 65 103 6.0 10.0 0.00 0.13 0.01 78 1010.2
20191014134506 65 69 6.0 10.0 0.00 0.01 0.01 78 1011.5
20191014134156 65 84 6.0 10.0 0.00 0.13 0.01 78 1010.3
20191014133655 65 82 7.0 12.0 0.00 0.13 0.01 78 1010.4
20191014133157 65 71 7.0 12.0 0.00 0.13 0.01 78 1010.4
20191014132656 65 77 8.0 12.0 0.00 0.13 0.01 78 1010.4
20191014132505 65 79 6.0 12.0 0.00 0.01 0.01 78 1011.6
20191014132155 65 76 7.0 12.0 0.00 0.13 0.01 78 1010.4
20191014131655 65 89 6.0 10.0 0.00 0.13 0.01 78 1010.6
20191014131505 65 61 6.0 10.0 0.00 0.01 0.01 78 1011.8
20191014131156 64 73 6.0 10.0 0.00 0.13 0.01 79 1010.6
20191014130656 64 85 6.0 10.0 0.00 0.13 0.01 79 1010.7
20191014130157 64 78 6.0 10.0 0.00 0.13 0.01 78 1010.9
20191014125656 64 83 6.0 10.0 0.00 0.13 0.01 79 1010.9
20191014125505 64 61 6.0 9.0 0.00 0.01 0.01 79 1012.1
20191014125157 64 64 6.0 9.0 0.00 0.13 0.01 78 1010.9
20191014124656 64 76 9.0 13.0 0.00 0.13 0.01 78 1010.9
20191014124505 64 109 8.0 13.0 0.00 0.01 0.01 78 1012.1
20191014124156 64 80 6.0 10.0 0.00 0.13 0.01 78 1011.0
20191014123656 64 67 6.0 10.0 0.00 0.13 0.01 78 1011.0
20191014123505 64 83 7.0 11.0 0.00 0.01 0.01 78 1012.3
20191014123156 64 93 6.0 12.0 0.00 0.13 0.01 78 1011.2
20191014122656 64 49 5.0 8.0 0.00 0.13 0.01 77 1011.2
20191014122156 64 72 4.0 8.0 0.00 0.13 0.01 77 1011.2
20191014121655 64 95 4.0 7.0 0.00 0.13 0.01 77 1011.3
20191014121156 64 62 7.0 10.0 0.01 0.13 0.01 76 1011.4
20191014120656 64 76 5.0 8.0 0.01 0.13 0.01 76 1011.5
20191014120506 64 90 5.0 8.0 0.01 0.01 0.01 76 1012.8
20191014120156 64 88 6.0 8.0 0.01 0.13 0.01 77 1011.6
20191014115656 63 84 6.0 6.0 0.01 0.13 0.01 77 1011.7
20191014115504 64 99 3.0 8.0 0.01 0.01 0.01 78 1012.9
20191014115156 63 89 5.0 8.0 0.01 0.13 0.01 77 1011.8
20191014114655 63 89 4.0 8.0 0.01 0.13 0.01 78 1011.8
20191014114156 63 109 6.0 10.0 0.01 0.13 0.01 78 1011.8
20191014113656 63 77 6.0 10.0 0.01 0.13 0.01 78 1011.9
20191014113156 63 96 5.0 10.0 0.01 0.13 0.01 78 1012.1
20191014112656 63 83 4.0 8.0 0.01 0.13 0.01 80 1012.1
20191014112157 63 95 2.0 5.0 0.01 0.13 0.01 78 1012.1
20191014111656 63 103 6.0 8.0 0.01 0.13 0.01 78 1012.2
20191014111156 63 92 3.0 7.0 0.00 0.13 0.00 78 1012.3
20191014110657 63 90 4.0 7.0 0.00 0.13 0.00 77 1012.5
20191014110505 63 83 4.0 8.0 0.00 0.00 0.00 77 1013.8
20191014110157 63 78 3.0 3.0 0.00 0.13 0.00 76 1012.6
20191014105656 63 39 0.0 3.0 0.00 0.13 0.00 76 1012.7
20191014105504 63 97 2.0 7.0 0.00 0.00 0.00 75 1014.0
20191014105155 63 0 0.0 0.0 0.00 0.13 0.00 76 1012.7
20191014104656 63 0 0.0 0.0 0.00 0.13 0.00 76 1012.8
20191014104157 63 0 0.0 0.0 0.00 0.13 0.00 76 1012.9
20191014103656 63 2 1.0 3.0 0.00 0.13 0.00 76 1012.9
20191014103156 63 53 3.0 3.0 0.00 0.13 0.00 76 1013.0
20191014102656 63 53 3.0 7.0 0.00 0.13 0.00 76 1013.0
20191014102504 63 59 4.0 7.0 0.00 0.00 0.00 77 1014.1
20191014102157 63 77 2.0 7.0 0.00 0.13 0.00 75 1012.9
20191014101656 63 79 1.0 3.0 0.00 0.13 0.00 75 1013.0
20191014101156 63 96 1.0 3.0 0.00 0.13 0.00 75 1013.0
20191014100657 63 217 0.0 0.0 0.00 0.13 0.00 75 1013.1
20191014100504 63 217 0.0 0.0 0.00 0.00 0.00 75 1014.4
20191014100156 63 217 0.0 0.0 0.00 0.13 0.00 75 1013.2
20191014095656 62 217 0.0 1.0 0.00 0.13 0.00 75 1013.2
20191014095156 62 217 1.0 2.0 0.00 0.13 0.00 77 1013.2
20191014094656 62 206 2.0 3.0 0.00 0.13 0.00 77 1013.2
20191014094504 62 206 2.0 5.0 0.00 0.00 0.00 78 1014.5
20191014094156 62 189 1.0 3.0 0.00 0.14 0.00 78 1013.3
20191014093658 62 98 2.0 3.0 0.00 0.14 0.00 77 1013.6
20191014093156 63 189 1.0 6.0 0.00 0.14 0.00 79 1013.6
20191014092656 63 206 1.0 5.0 0.00 0.14 0.00 79 1013.5
20191014092503 63 206 3.0 5.0 0.00 0.00 0.00 79 1014.7
20191014092156 63 230 2.0 3.0 0.00 0.14 0.00 80 1013.4
20191014091656 62 210 2.0 5.0 0.00 0.14 0.00 81 1013.4
20191014091511 62 190 1.0 5.0 0.00 0.00 0.00 81 1014.6
20191014091156 62 43 1.0 3.0 0.00 0.14 0.00 81 1013.4
20191014090656 62 176 2.0 6.0 0.00 0.14 0.00 80 1013.4
20191014090503 62 214 1.0 3.0 0.00 0.00 0.00 81 1014.5
20191014090156 62 214 1.0 3.0 0.00 0.14 0.00 81 1013.3
20191014085656 61 126 2.0 3.0 0.00 0.14 0.00 82 1013.3
20191014085504 61 240 0.0 2.0 0.00 0.00 0.00 82 1014.5
20191014085156 61 240 1.0 2.0 0.00 0.14 0.00 82 1013.3
20191014084656 61 240 1.0 2.0 0.00 0.14 0.00 82 1013.4
20191014084156 61 240 0.0 3.0 0.00 0.14 0.00 82 1013.4
20191014083656 61 240 1.0 3.0 0.00 0.14 0.00 81 1013.4
20191014083502 61 240 0.0 4.0 0.00 0.00 0.00 81 1014.5
20191014083157 61 240 0.0 3.0 0.00 0.14 0.00 81 1013.3
20191014082656 61 240 2.0 3.0 0.00 0.14 0.00 81 1013.4
20191014082503 62 233 1.0 5.0 0.00 0.00 0.00 82 1014.5
20191014082156 62 224 2.0 3.0 0.00 0.14 0.00 82 1013.3
20191014081656 62 210 1.0 3.0 0.00 0.14 0.00 83 1013.2
20191014081156 61 279 3.0 7.0 0.00 0.14 0.00 84 1013.2
20191014080656 61 256 2.0 3.0 0.00 0.14 0.00 85 1013.2
20191014080502 61 256 2.0 5.0 0.00 0.00 0.00 85 1014.4
20191014080155 61 237 2.0 3.0 0.00 0.14 0.00 85 1013.2
20191014075656 60 246 2.0 6.0 0.00 0.14 0.00 86 1013.2
20191014075504 60 245 3.0 6.0 0.00 0.00 0.00 86 1014.5
20191014075157 60 256 2.0 3.0 0.00 0.14 0.00 86 1013.3
20191014074656 60 254 2.0 8.0 0.00 0.14 0.00 87 1013.3
20191014074157 60 229 1.0 5.0 0.00 0.14 0.00 88 1013.3
20191014073656 59 225 3.0 5.0 0.00 0.14 0.00 88 1013.3
20191014073503 60 235 2.0 6.0 0.00 0.00 0.00 89 1014.5
20191014073155 60 218 1.0 3.0 0.00 0.14 0.00 89 1013.2
20191014072656 59 205 1.0 3.0 0.00 0.14 0.00 90 1013.2
20191014072502 59 205 2.0 5.0 0.00 0.00 0.00 89 1014.3
20191014072157 59 208 2.0 3.0 0.00 0.14 0.00 90 1013.2
20191014071656 58 227 0.0 1.0 0.00 0.14 0.00 90 1013.1
20191014071156 58 227 0.0 3.0 0.00 0.14 0.00 91 1013.2
20191014070657 57 227 1.0 2.0 0.00 0.14 0.00 91 1013.2
20191014070156 57 227 0.0 2.0 0.00 0.14 0.00 91 1013.2
20191014065656 57 227 3.0 5.0 0.00 0.14 0.00 91 1013.2
20191014065503 57 228 2.0 4.0 0.00 0.00 0.00 90 1014.4
20191014065156 57 207 1.0 3.0 0.00 0.14 0.00 91 1013.1
20191014064656 56 207 1.0 3.0 0.00 0.14 0.00 91 1012.9
20191014064501 56 207 1.0 3.0 0.00 0.00 0.00 91 1014.2
20191014064157 55 206 0.0 0.0 0.00 0.14 0.00 91 1012.9
20191014063657 55 206 0.0 2.0 0.00 0.14 0.00 91 1012.8
20191014063156 54 206 1.0 2.0 0.00 0.14 0.00 90 1012.8
20191014062656 54 206 0.0 1.0 0.00 0.14 0.00 90 1012.7
20191014062506 54 206 0.0 1.0 0.00 0.00 0.00 90 1013.9
20191014062156 54 206 0.0 0.0 0.00 0.14 0.00 90 1012.6
20191014061658 54 206 0.0 0.0 0.00 0.14 0.00 90 1012.5
20191014061156 54 0 0.0 0.0 0.00 0.14 0.00 89 1012.6
20191014060656 54 0 0.0 0.0 0.00 0.14 0.00 89 1012.5
20191014060506 53 206 0.0 0.0 0.00 0.00 0.00 90 1013.6
20191014060158 54 0 0.0 0.0 0.00 0.14 0.00 89 1012.4
20191014055656 54 0 0.0 0.0 0.00 0.14 0.00 89 1012.4
20191014055506 53 206 0.0 1.0 0.00 0.00 0.00 90 1013.6
20191014055156 54 215 0.0 0.0 0.00 0.14 0.00 89 1012.3
20191014054656 54 206 0.0 0.0 0.00 0.14 0.00 89 1012.2
20191014054507 53 206 0.0 1.0 0.00 0.00 0.00 89 1013.4
20191014054156 54 206 0.0 0.0 0.00 0.14 0.00 89 1012.3
20191014053656 57 0 0.0 0.0 0.00 0.14 0.00 88 1012.3
20191014053156 57 0 0.0 0.0 0.00 0.14 0.00 88 1012.3
20191014052658 57 0 0.0 0.0 0.00 0.14 0.00 88 1012.2
20191014052157 57 0 0.0 0.0 0.00 0.14 0.00 88 1012.0
20191014051656 57 0 0.0 0.0 0.00 0.14 0.00 88 1012.0
20191014051158 57 0 0.0 0.0 0.00 0.14 0.00 88 1012.0
20191014050656 57 0 0.0 0.0 0.00 0.14 0.00 88 1012.0
20191014050505 55 206 0.0 1.0 0.00 0.00 0.00 89 1013.1
20191014050156 57 0 0.0 0.0 0.00 0.14 0.00 88 1012.0
20191014045656 57 0 0.0 0.0 0.00 0.14 0.00 88 1012.0
20191014045506 55 206 1.0 3.0 0.00 0.00 0.00 89 1013.2
20191014045157 57 0 0.0 0.0 0.00 0.14 0.00 88 1011.9
20191014044656 57 0 0.0 0.0 0.00 0.14 0.00 88 1011.9
20191014044157 57 0 0.0 0.0 0.00 0.14 0.00 88 1011.9
20191014043658 57 0 0.0 0.0 0.00 0.14 0.00 88 1011.8
20191014043505 55 227 0.0 0.0 0.00 0.00 0.00 88 1013.0
20191014043158 57 0 0.0 0.0 0.00 0.14 0.00 88 1011.8
20191014042656 57 0 0.0 0.0 0.00 0.14 0.00 88 1011.8
20191014042505 56 227 0.0 0.0 0.00 0.00 0.00 88 1013.0
20191014042158 57 0 0.0 0.0 0.00 0.14 0.00 88 1011.8
20191014041657 57 0 0.0 0.0 0.00 0.14 0.00 88 1011.7
20191014041504 56 227 0.0 0.0 0.00 0.00 0.00 88 1012.8
20191014041156 57 0 0.0 0.0 0.00 0.14 0.00 88 1011.7
20191014040656 57 0 0.0 0.0 0.00 0.14 0.00 88 1011.7
20191014040156 57 3 0.0 3.0 0.00 0.14 0.00 88 1011.6
20191014035656 57 238 3.0 3.0 0.00 0.14 0.00 88 1011.7
20191014035157 57 238 3.0 3.0 0.00 0.14 0.00 88 1011.8
20191014034658 57 223 3.0 6.0 0.00 0.14 0.00 88 1011.8
20191014034504 57 220 1.0 5.0 0.00 0.00 0.00 88 1013.0
20191014034156 57 220 0.0 0.0 0.00 0.14 0.00 88 1011.8
20191014033656 57 215 1.0 2.0 0.00 0.14 0.00 88 1011.6
20191014033158 57 215 1.0 3.0 0.00 0.14 0.00 87 1011.7
20191014032657 57 223 1.0 3.0 0.00 0.14 0.00 87 1011.6
20191014032504 58 235 2.0 6.0 0.00 0.00 0.00 87 1012.8
20191014032156 58 231 3.0 6.0 0.00 0.14 0.00 87 1011.6
20191014031656 58 230 3.0 8.0 0.00 0.14 0.00 87 1011.6
20191014031505 58 220 2.0 8.0 0.00 0.00 0.00 87 1012.7
20191014031156 58 232 2.0 7.0 0.00 0.14 0.00 87 1011.7
20191014030656 58 255 2.0 8.0 0.00 0.14 0.00 87 1011.7
20191014030156 58 235 5.0 12.0 0.00 0.14 0.00 87 1011.7
20191014025658 58 237 4.0 10.0 0.00 0.14 0.00 87 1011.7
20191014025158 58 250 1.0 9.0 0.00 0.14 0.00 87 1011.4
20191014024657 59 0 0.0 0.0 0.00 0.14 0.00 87 1011.5
20191014024503 58 238 5.0 9.0 0.00 0.00 0.00 87 1012.7
20191014024158 59 0 0.0 0.0 0.00 0.14 0.00 87 1011.5
20191014023656 59 10 1.0 1.0 0.00 0.14 0.00 87 1011.4
20191014023156 59 225 1.0 1.0 0.00 0.14 0.00 87 1011.4
20191014022656 59 225 3.0 8.0 0.00 0.14 0.00 87 1011.3
20191014022156 59 237 5.0 9.0 0.00 0.14 0.00 87 1011.3
20191014021657 59 219 3.0 7.0 0.00 0.14 0.00 87 1011.2
20191014021503 59 0 2.0 2.0 0.00 0.00 0.00 87 1012.4
20191014021157 59 231 2.0 3.0 0.00 0.14 0.00 87 1011.1
20191014020658 59 223 3.0 5.0 0.00 0.14 0.00 87 1011.0
20191014020157 59 239 2.0 7.0 0.00 0.14 0.00 87 1010.9
20191014015656 59 235 4.0 8.0 0.00 0.14 0.00 87 1010.9
20191014015504 59 233 3.0 7.0 0.00 0.00 0.00 87 1012.1
20191014015158 59 245 3.0 7.0 0.00 0.14 0.00 87 1010.7
20191014014656 59 252 2.0 7.0 0.00 0.14 0.00 87 1010.6
20191014014156 59 234 4.0 7.0 0.00 0.14 0.00 87 1010.7
20191014013656 59 217 5.0 8.0 0.00 0.14 0.00 88 1010.6